Time;durP1;ratioP1;P1;durP2;ratioP2;P2;SDS_P1;SDS_P2;PMS_P1;PMS_P2;Temp;Humidity;BMP_temperature;BMP_pressure;BME280_temperature;BME280_humidity;BME280_pressure;Samples;Min_cycle;Max_cycle;Signal;HPM_P1;HPM_P2
2021/04/25 00:01:44;;;;;;;1.15;0.70;;;;;;;;;;5053439;28;20209;-79
2021/04/25 00:04:14;;;;;;;1.10;0.70;;;;;;;;;;5049612;28;20665;-78
2021/04/25 00:06:40;;;;;;;1.10;0.70;;;;;;;;;;5056847;28;20518;-78
2021/04/25 00:09:06;;;;;;;1.10;0.70;;;;;;;;;;5053388;28;20205;-78
2021/04/25 00:11:32;;;;;;;1.10;0.70;;;;;;;;;;5054317;28;20627;-78
2021/04/25 00:13:58;;;;;;;1.20;0.80;;;;;;;;;;5056710;28;20211;-78
2021/04/25 00:16:26;;;;;;;1.10;0.70;;;;;;;;;;5069277;28;20428;-79
2021/04/25 00:18:52;;;;;;;1.10;0.80;;;;;;;;;;5052544;28;20307;-78
2021/04/25 00:21:21;;;;;;;1.10;0.70;;;;;;;;;;5053557;28;20205;-78
2021/04/25 00:23:47;;;;;;;1.10;0.73;;;;;;;;;;5054455;28;20428;-78
2021/04/25 00:26:13;;;;;;;1.17;0.80;;;;;;;;;;5054189;28;20229;-78
2021/04/25 00:28:39;;;;;;;1.10;0.80;;;;;;;;;;5054964;28;20264;-79
2021/04/25 00:31:05;;;;;;;1.10;0.70;;;;;;;;;;5053351;28;20484;-78
2021/04/25 00:33:31;;;;;;;1.20;0.80;;;;;;;;;;5055711;28;20517;-78
2021/04/25 00:35:57;;;;;;;1.10;0.80;;;;;;;;;;5080089;28;20179;-78
2021/04/25 00:38:23;;;;;;;1.10;0.70;;;;;;;;;;5071043;28;20550;-77
2021/04/25 00:40:49;;;;;;;1.10;0.70;;;;;;;;;;5057438;28;20221;-79
2021/04/25 00:43:15;;;;;;;1.17;0.80;;;;;;;;;;5055367;28;20177;-79
2021/04/25 00:45:41;;;;;;;1.20;0.80;;;;;;;;;;5055026;28;20897;-79
2021/04/25 00:48:07;;;;;;;1.20;0.80;;;;;;;;;;5055518;28;20209;-79
2021/04/25 00:50:33;;;;;;;1.13;0.70;;;;;;;;;;5053774;28;20590;-79
2021/04/25 00:53:00;;;;;;;1.10;0.73;;;;;;;;;;5050057;28;20635;-78
2021/04/25 00:55:27;;;;;;;1.10;0.70;;;;;;;;;;5054664;28;20420;-78
2021/04/25 00:57:54;;;;;;;1.10;0.70;;;;;;;;;;5053758;28;20186;-79
2021/04/25 01:00:20;;;;;;;1.10;0.70;;;;;;;;;;5055033;28;20182;-79
2021/04/25 01:02:46;;;;;;;1.10;0.70;;;;;;;;;;5049382;28;20240;-79
2021/04/25 01:05:14;;;;;;;1.10;0.80;;;;;;;;;;5052188;28;20661;-78
2021/04/25 01:07:40;;;;;;;1.10;0.75;;;;;;;;;;5070261;28;20482;-78
2021/04/25 01:10:06;;;;;;;1.10;0.70;;;;;;;;;;5054667;28;20197;-79
2021/04/25 01:12:32;;;;;;;1.20;0.77;;;;;;;;;;5054282;28;20215;-78
2021/04/25 01:14:58;;;;;;;1.10;0.80;;;;;;;;;;5053670;28;20592;-79
2021/04/25 01:17:24;;;;;;;1.17;0.77;;;;;;;;;;5054201;28;20419;-79
2021/04/25 01:19:51;;;;;;;1.20;0.80;;;;;;;;;;5053441;28;20442;-78
2021/04/25 01:22:18;;;;;;;1.10;0.70;;;;;;;;;;5053341;28;20201;-78
2021/04/25 01:24:44;;;;;;;1.20;0.70;;;;;;;;;;5053462;28;20213;-78
2021/04/25 01:27:10;;;;;;;1.20;0.80;;;;;;;;;;5054107;28;20185;-80
2021/04/25 01:29:36;;;;;;;1.10;0.70;;;;;;;;;;5054456;28;20474;-78
2021/04/25 01:32:02;;;;;;;1.17;0.80;;;;;;;;;;5044407;28;20447;-78
2021/04/25 01:34:29;;;;;;;1.17;0.70;;;;;;;;;;5054216;28;20184;-79
2021/04/25 01:36:57;;;;;;;1.10;0.80;;;;;;;;;;5063329;28;20318;-79
2021/04/25 01:39:23;;;;;;;1.17;0.90;;;;;;;;;;5057573;28;20189;-79
2021/04/25 01:41:49;;;;;;;1.10;0.70;;;;;;;;;;5059483;28;20209;-78
2021/04/25 01:44:16;;;;;;;1.10;0.77;;;;;;;;;;5053932;28;20615;-78
2021/04/25 01:46:41;;;;;;;1.10;0.80;;;;;;;;;;5052375;28;20174;-78
2021/04/25 01:49:08;;;;;;;1.10;0.80;;;;;;;;;;5053235;28;20690;-77
2021/04/25 01:51:34;;;;;;;1.10;0.70;;;;;;;;;;5049917;28;20452;-78
2021/04/25 01:54:00;;;;;;;1.10;0.70;;;;;;;;;;5052194;28;20181;-77
2021/04/25 01:56:26;;;;;;;1.10;0.90;;;;;;;;;;5054285;28;20173;-78
2021/04/25 01:58:52;;;;;;;1.10;0.80;;;;;;;;;;5054008;28;20263;-78
2021/04/25 02:01:18;;;;;;;1.10;0.70;;;;;;;;;;5053346;28;20251;-79
2021/04/25 02:03:44;;;;;;;1.25;1.02;;;;;;;;;;5051816;28;20432;-78
2021/04/25 02:06:10;;;;;;;1.10;0.70;;;;;;;;;;5058590;28;20650;-78
2021/04/25 02:08:36;;;;;;;1.45;1.35;;;;;;;;;;5052854;28;20190;-79
2021/04/25 02:11:02;;;;;;;1.10;0.80;;;;;;;;;;5058974;28;20215;-78
2021/04/25 02:13:28;;;;;;;1.10;0.70;;;;;;;;;;5055621;28;20671;-79
2021/04/25 02:15:54;;;;;;;1.10;0.80;;;;;;;;;;5054003;28;20174;-79
2021/04/25 02:18:19;;;;;;;1.10;0.70;;;;;;;;;;5054206;28;20900;-78
2021/04/25 02:20:46;;;;;;;1.10;0.80;;;;;;;;;;5048722;28;20470;-79
2021/04/25 02:23:12;;;;;;;1.10;0.80;;;;;;;;;;5049174;28;20484;-79
2021/04/25 02:25:38;;;;;;;1.10;0.80;;;;;;;;;;5053603;28;20178;-79
2021/04/25 02:28:04;;;;;;;1.10;0.70;;;;;;;;;;5053456;28;20188;-78
2021/04/25 02:30:31;;;;;;;1.10;0.80;;;;;;;;;;5057013;28;20499;-79
2021/04/25 02:32:57;;;;;;;1.10;0.73;;;;;;;;;;5052559;28;20567;-77
2021/04/25 02:35:25;;;;;;;1.10;0.80;;;;;;;;;;5054304;28;20203;-78
2021/04/25 02:37:51;;;;;;;1.10;0.80;;;;;;;;;;5053141;28;20257;-78
2021/04/25 02:40:21;;;;;;;1.10;0.70;;;;;;;;;;5056574;28;20193;-79
2021/04/25 02:42:47;;;;;;;1.10;0.70;;;;;;;;;;5054067;22;20221;-77
2021/04/25 02:45:17;;;;;;;1.10;0.80;;;;;;;;;;5052311;28;20181;-77
2021/04/25 02:47:47;;;;;;;1.10;0.80;;;;;;;;;;5037828;28;20182;-78
2021/04/25 02:50:13;;;;;;;1.10;0.70;;;;;;;;;;5036512;28;20207;-78
2021/04/25 02:52:39;;;;;;;1.10;0.80;;;;;;;;;;5053296;28;20206;-76
2021/04/25 02:55:06;;;;;;;1.10;0.80;;;;;;;;;;5057724;28;20192;-76
2021/04/25 02:57:32;;;;;;;1.10;0.70;;;;;;;;;;5040350;28;20659;-79
2021/04/25 02:59:58;;;;;;;1.10;0.70;;;;;;;;;;5037140;28;20592;-79
2021/04/25 03:02:24;;;;;;;1.10;0.70;;;;;;;;;;5035515;28;20202;-78
2021/04/25 03:04:50;;;;;;;1.10;0.80;;;;;;;;;;5035436;28;20512;-79
2021/04/25 03:07:17;;;;;;;1.10;0.80;;;;;;;;;;5031333;28;20202;-78
2021/04/25 03:09:43;;;;;;;1.10;0.70;;;;;;;;;;5041209;28;20214;-79
2021/04/25 03:12:09;;;;;;;1.10;0.80;;;;;;;;;;5031061;28;20788;-79
2021/04/25 03:14:35;;;;;;;1.10;0.70;;;;;;;;;;5047479;28;20445;-79
2021/04/25 03:17:01;;;;;;;1.10;0.80;;;;;;;;;;5036607;28;20683;-79
2021/04/25 03:19:27;;;;;;;1.10;0.70;;;;;;;;;;5035587;28;20246;-78
2021/04/25 03:21:53;;;;;;;1.10;0.73;;;;;;;;;;5035471;28;20472;-78
2021/04/25 03:24:19;;;;;;;1.10;0.77;;;;;;;;;;5034201;28;20444;-79
2021/04/25 03:26:45;;;;;;;1.10;0.70;;;;;;;;;;5036227;28;20912;-78
2021/04/25 03:29:11;;;;;;;1.10;0.70;;;;;;;;;;5035367;28;20202;-78
2021/04/25 03:31:37;;;;;;;1.10;0.70;;;;;;;;;;5034665;28;20206;-79
2021/04/25 03:34:04;;;;;;;1.10;0.80;;;;;;;;;;5033481;28;20440;-78
2021/04/25 03:36:30;;;;;;;1.10;0.70;;;;;;;;;;5034534;28;20182;-79
2021/04/25 03:38:56;;;;;;;1.10;0.70;;;;;;;;;;5035367;28;20182;-79
2021/04/25 03:41:23;;;;;;;1.10;0.80;;;;;;;;;;5034898;28;20178;-78
2021/04/25 03:43:49;;;;;;;2.00;1.90;;;;;;;;;;5045633;28;20177;-78
2021/04/25 03:46:15;;;;;;;1.10;0.80;;;;;;;;;;5047064;28;20806;-77
2021/04/25 03:48:41;;;;;;;1.10;0.70;;;;;;;;;;5035717;28;20174;-77
2021/04/25 03:51:07;;;;;;;1.10;0.80;;;;;;;;;;5035095;28;20233;-78
2021/04/25 03:53:33;;;;;;;1.10;0.80;;;;;;;;;;5039163;28;20452;-77
2021/04/25 03:55:59;;;;;;;1.10;0.80;;;;;;;;;;5041261;28;20661;-79
2021/04/25 03:58:25;;;;;;;1.10;0.80;;;;;;;;;;5035564;28;20167;-79
2021/04/25 04:00:51;;;;;;;1.10;0.80;;;;;;;;;;5034710;28;20209;-79
2021/04/25 04:03:17;;;;;;;1.10;0.70;;;;;;;;;;5035081;28;20582;-79
2021/04/25 04:05:43;;;;;;;1.10;0.80;;;;;;;;;;5034742;28;20178;-79
2021/04/25 04:08:09;;;;;;;1.10;0.73;;;;;;;;;;5034366;28;20432;-79
2021/04/25 04:10:35;;;;;;;1.10;0.70;;;;;;;;;;5035309;28;20213;-79
2021/04/25 04:13:01;;;;;;;1.10;0.80;;;;;;;;;;5041542;28;20201;-78
2021/04/25 04:15:27;;;;;;;1.10;0.70;;;;;;;;;;5049372;28;20177;-79
2021/04/25 04:17:53;;;;;;;1.10;0.70;;;;;;;;;;5035848;28;20177;-78
2021/04/25 04:20:19;;;;;;;1.10;0.80;;;;;;;;;;5033833;28;20672;-78
2021/04/25 04:22:45;;;;;;;1.10;0.80;;;;;;;;;;5031917;28;20697;-79
2021/04/25 04:25:11;;;;;;;1.20;1.02;;;;;;;;;;5032446;28;20186;-78
2021/04/25 04:27:37;;;;;;;1.10;0.80;;;;;;;;;;5035563;28;20252;-79
2021/04/25 04:30:04;;;;;;;1.10;0.80;;;;;;;;;;5034090;28;20212;-75
2021/04/25 04:32:30;;;;;;;1.10;0.80;;;;;;;;;;5030547;28;20275;-75
2021/04/25 04:34:56;;;;;;;1.10;0.70;;;;;;;;;;5031893;28;20212;-75
2021/04/25 04:37:22;;;;;;;1.10;0.80;;;;;;;;;;5030639;28;20189;-74
2021/04/25 04:39:48;;;;;;;1.10;0.80;;;;;;;;;;5029492;28;20209;-75
2021/04/25 04:42:14;;;;;;;1.10;0.80;;;;;;;;;;5031391;28;20218;-74
2021/04/25 04:44:40;;;;;;;1.10;0.70;;;;;;;;;;5047251;28;20186;-76
2021/04/25 04:47:06;;;;;;;1.10;0.70;;;;;;;;;;5040331;28;20556;-76
2021/04/25 04:49:32;;;;;;;1.10;0.80;;;;;;;;;;5031016;28;20522;-76
2021/04/25 04:51:58;;;;;;;1.10;0.70;;;;;;;;;;5031237;28;20755;-76
2021/04/25 04:54:24;;;;;;;1.10;0.70;;;;;;;;;;5027893;28;20437;-76
2021/04/25 04:56:50;;;;;;;1.10;0.80;;;;;;;;;;5032002;28;20449;-75
2021/04/25 04:59:16;;;;;;;1.10;0.70;;;;;;;;;;5032359;28;20167;-76
2021/04/25 05:01:42;;;;;;;1.10;0.80;;;;;;;;;;5029486;28;20248;-75
2021/04/25 05:04:08;;;;;;;1.10;0.80;;;;;;;;;;5030108;28;20189;-76
2021/04/25 05:06:34;;;;;;;1.10;0.80;;;;;;;;;;5029181;28;20198;-75
2021/04/25 05:09:00;;;;;;;1.10;0.70;;;;;;;;;;5030563;28;20448;-75
2021/04/25 05:11:26;;;;;;;1.10;0.70;;;;;;;;;;5029208;28;20237;-76
2021/04/25 05:13:52;;;;;;;1.10;0.70;;;;;;;;;;5037341;28;20251;-75
2021/04/25 05:16:18;;;;;;;1.17;0.97;;;;;;;;;;5048566;28;20182;-76
2021/04/25 05:18:44;;;;;;;1.10;0.70;;;;;;;;;;5037239;28;20436;-75
2021/04/25 05:21:10;;;;;;;1.10;0.80;;;;;;;;;;5030411;28;20535;-76
2021/04/25 05:23:36;;;;;;;1.10;0.80;;;;;;;;;;5028384;28;20202;-76
2021/04/25 05:26:02;;;;;;;1.10;0.80;;;;;;;;;;5031265;28;20185;-76
2021/04/25 05:28:30;;;;;;;1.10;0.70;;;;;;;;;;5027503;28;20240;-75
2021/04/25 05:30:56;;;;;;;1.10;0.80;;;;;;;;;;5031081;28;20692;-75
2021/04/25 05:33:22;;;;;;;1.10;0.70;;;;;;;;;;5030545;28;20202;-76
2021/04/25 05:35:48;;;;;;;1.10;0.70;;;;;;;;;;5029743;28;20189;-76
2021/04/25 05:38:14;;;;;;;1.10;0.70;;;;;;;;;;5029814;28;20174;-75
2021/04/25 05:40:40;;;;;;;1.10;0.80;;;;;;;;;;5030743;28;20216;-76
2021/04/25 05:43:06;;;;;;;1.10;0.70;;;;;;;;;;5038346;28;20224;-76
2021/04/25 05:45:32;;;;;;;1.10;0.70;;;;;;;;;;5028199;28;20183;-76
2021/04/25 05:47:58;;;;;;;1.10;0.70;;;;;;;;;;5029150;28;20669;-75
2021/04/25 05:50:26;;;;;;;1.10;0.70;;;;;;;;;;5029463;28;20290;-76
2021/04/25 05:52:53;;;;;;;1.10;0.70;;;;;;;;;;5029260;28;20227;-76
2021/04/25 05:55:20;;;;;;;1.10;0.70;;;;;;;;;;5040193;28;20237;-76
2021/04/25 05:57:46;;;;;;;1.10;0.70;;;;;;;;;;5031118;28;20180;-76
2021/04/25 06:00:14;;;;;;;1.10;0.70;;;;;;;;;;5031228;28;20177;-76
2021/04/25 06:02:40;;;;;;;1.10;0.70;;;;;;;;;;5028615;28;20198;-76
2021/04/25 06:05:06;;;;;;;1.10;0.70;;;;;;;;;;5034926;28;20239;-76
2021/04/25 06:07:32;;;;;;;1.10;0.70;;;;;;;;;;5030523;28;20207;-76
2021/04/25 06:09:58;;;;;;;1.10;0.70;;;;;;;;;;5033373;28;20296;-76
2021/04/25 06:12:24;;;;;;;1.10;0.70;;;;;;;;;;5035916;28;20539;-76
2021/04/25 06:14:50;;;;;;;1.10;0.70;;;;;;;;;;5050162;28;20182;-76
2021/04/25 06:17:16;;;;;;;1.10;0.70;;;;;;;;;;5042119;28;20218;-76
2021/04/25 06:19:42;;;;;;;1.15;0.70;;;;;;;;;;5034467;28;20675;-77
2021/04/25 06:22:09;;;;;;;1.15;0.70;;;;;;;;;;5031390;28;20720;-76
2021/04/25 06:24:36;;;;;;;1.15;0.70;;;;;;;;;;5032380;28;20297;-76
2021/04/25 06:27:02;;;;;;;1.10;0.70;;;;;;;;;;5034533;28;20186;-76
2021/04/25 06:29:29;;;;;;;1.13;0.70;;;;;;;;;;5034311;28;20304;-76
2021/04/25 06:31:55;;;;;;;1.10;0.70;;;;;;;;;;5034249;28;20206;-75
2021/04/25 06:34:21;;;;;;;1.10;0.70;;;;;;;;;;5033545;28;20192;-75
2021/04/25 06:36:47;;;;;;;1.10;0.82;;;;;;;;;;5031990;28;20182;-74
2021/04/25 06:39:13;;;;;;;1.10;0.70;;;;;;;;;;5030845;28;20185;-74
2021/04/25 06:41:39;;;;;;;1.10;0.70;;;;;;;;;;5033898;28;20206;-73
2021/04/25 06:44:08;;;;;;;1.10;0.70;;;;;;;;;;5031372;28;20441;-73
2021/04/25 06:46:34;;;;;;;1.10;0.70;;;;;;;;;;5033930;28;20179;-75
2021/04/25 06:49:00;;;;;;;1.10;0.80;;;;;;;;;;5037268;28;20184;-74
2021/04/25 06:51:26;;;;;;;1.10;0.80;;;;;;;;;;5032248;28;20425;-75
2021/04/25 06:53:52;;;;;;;1.10;0.70;;;;;;;;;;5032666;28;20431;-75
2021/04/25 06:56:18;;;;;;;1.10;0.70;;;;;;;;;;5033907;28;20203;-74
2021/04/25 06:58:44;;;;;;;1.10;0.70;;;;;;;;;;5034067;28;20542;-74
2021/04/25 07:01:11;;;;;;;1.10;0.70;;;;;;;;;;5033460;28;20185;-75
2021/04/25 07:03:37;;;;;;;1.10;0.70;;;;;;;;;;5032253;28;20459;-74
2021/04/25 07:06:03;;;;;;;1.10;0.70;;;;;;;;;;5032872;28;20232;-73
2021/04/25 07:08:29;;;;;;;1.10;0.70;;;;;;;;;;5029645;28;20192;-74
2021/04/25 07:10:55;;;;;;;1.10;0.70;;;;;;;;;;5029497;28;20213;-74
2021/04/25 07:13:21;;;;;;;1.10;0.70;;;;;;;;;;5030093;28;20502;-74
2021/04/25 07:15:48;;;;;;;1.10;0.70;;;;;;;;;;5032261;28;20244;-75
2021/04/25 07:18:14;;;;;;;1.10;0.70;;;;;;;;;;5032477;28;20186;-75
2021/04/25 07:20:40;;;;;;;1.10;0.70;;;;;;;;;;5031653;28;20187;-75
2021/04/25 07:23:06;;;;;;;1.10;0.70;;;;;;;;;;5033184;28;20666;-74
2021/04/25 07:25:32;;;;;;;1.10;0.70;;;;;;;;;;5033612;28;20582;-74
2021/04/25 07:27:59;;;;;;;1.10;0.70;;;;;;;;;;5020473;28;20187;-74
2021/04/25 07:30:25;;;;;;;1.10;0.70;;;;;;;;;;5033380;28;20233;-73
2021/04/25 07:32:51;;;;;;;1.10;0.70;;;;;;;;;;5052659;28;20232;-74
2021/04/25 07:35:17;;;;;;;1.10;0.70;;;;;;;;;;5035078;28;20243;-74
2021/04/25 07:37:44;;;;;;;3.55;1.13;;;;;;;;;;5027261;28;20182;-73
2021/04/25 07:40:11;;;;;;;1.10;0.70;;;;;;;;;;5031974;28;20190;-74
2021/04/25 07:42:39;;;;;;;1.10;0.70;;;;;;;;;;5036744;28;20231;-74
2021/04/25 07:45:06;;;;;;;1.10;0.70;;;;;;;;;;5026833;28;20190;-74
2021/04/25 07:47:32;;;;;;;1.10;0.70;;;;;;;;;;5033660;28;20210;-74
2021/04/25 07:49:58;;;;;;;1.10;0.70;;;;;;;;;;5032349;28;20493;-74
2021/04/25 07:52:24;;;;;;;1.10;0.70;;;;;;;;;;5032723;28;20201;-74
2021/04/25 07:54:50;;;;;;;1.10;0.80;;;;;;;;;;5029895;28;20190;-73
2021/04/25 07:57:16;;;;;;;1.10;0.70;;;;;;;;;;5042169;28;20415;-75
2021/04/25 07:59:42;;;;;;;1.10;0.80;;;;;;;;;;5038684;28;20691;-74
2021/04/25 08:02:08;;;;;;;1.10;0.70;;;;;;;;;;5030985;28;20216;-74
2021/04/25 08:04:34;;;;;;;1.10;0.70;;;;;;;;;;5034411;28;20831;-74
2021/04/25 08:07:00;;;;;;;1.10;0.70;;;;;;;;;;5046173;28;20428;-74
2021/04/25 08:09:26;;;;;;;1.10;0.70;;;;;;;;;;5032496;28;20205;-74
2021/04/25 08:11:55;;;;;;;1.10;0.70;;;;;;;;;;5032423;28;20198;-75
2021/04/25 08:14:21;;;;;;;1.10;0.70;;;;;;;;;;5032564;28;20412;-75
2021/04/25 08:16:47;;;;;;;1.10;0.70;;;;;;;;;;5036286;28;20192;-74
2021/04/25 08:19:13;;;;;;;1.10;0.70;;;;;;;;;;5052066;28;20620;-74
2021/04/25 08:21:39;;;;;;;1.10;0.70;;;;;;;;;;5033787;28;20209;-75
2021/04/25 08:24:05;;;;;;;1.10;0.80;;;;;;;;;;5032401;28;20174;-74
2021/04/25 08:26:31;;;;;;;1.10;0.70;;;;;;;;;;5033120;28;20201;-75
2021/04/25 08:28:57;;;;;;;1.10;0.80;;;;;;;;;;5033181;28;20189;-76
2021/04/25 08:31:23;;;;;;;1.10;0.70;;;;;;;;;;5031419;28;20194;-76
2021/04/25 08:33:49;;;;;;;1.10;0.70;;;;;;;;;;5032098;28;20178;-75
2021/04/25 08:36:16;;;;;;;1.10;0.70;;;;;;;;;;5032028;28;20570;-76
2021/04/25 08:38:42;;;;;;;1.10;0.70;;;;;;;;;;5040189;28;20181;-75
2021/04/25 08:41:11;;;;;;;1.10;0.70;;;;;;;;;;5037867;28;20196;-75
2021/04/25 08:43:41;;;;;;;1.10;0.70;;;;;;;;;;5030691;28;20685;-72
2021/04/25 08:46:07;;;;;;;1.10;0.70;;;;;;;;;;5031497;28;20596;-73
2021/04/25 08:48:35;;;;;;;1.10;0.70;;;;;;;;;;5032279;28;20732;-73
2021/04/25 08:51:01;;;;;;;1.10;0.70;;;;;;;;;;5031298;28;20291;-73
2021/04/25 08:53:27;;;;;;;1.10;0.70;;;;;;;;;;5029457;28;20213;-73
2021/04/25 08:55:53;;;;;;;1.10;0.70;;;;;;;;;;5029662;28;20218;-73
2021/04/25 08:58:21;;;;;;;1.10;0.70;;;;;;;;;;5031864;28;20178;-73
2021/04/25 09:00:47;;;;;;;1.10;0.70;;;;;;;;;;5031348;28;20178;-73
2021/04/25 09:03:14;;;;;;;1.10;0.70;;;;;;;;;;5031163;28;20186;-73
2021/04/25 09:05:40;;;;;;;1.00;0.70;;;;;;;;;;5028790;28;20521;-73
2021/04/25 09:08:07;;;;;;;1.00;0.70;;;;;;;;;;5035497;28;20224;-73
2021/04/25 09:10:36;;;;;;;1.00;0.70;;;;;;;;;;5031939;28;20470;-73
2021/04/25 09:13:22;;;;;;;1.00;0.60;;;;;;;;;;5051348;28;20194;-73
2021/04/25 09:15:49;;;;;;;1.00;0.70;;;;;;;;;;5043682;28;20178;-73
2021/04/25 09:18:15;;;;;;;1.00;0.70;;;;;;;;;;5022685;28;20207;-73
2021/04/25 09:20:43;;;;;;;1.00;0.60;;;;;;;;;;5026402;28;20236;-73
2021/04/25 09:23:10;;;;;;;1.00;0.60;;;;;;;;;;5039419;28;20702;-73
2021/04/25 09:25:37;;;;;;;1.00;0.60;;;;;;;;;;5030654;28;20182;-73
2021/04/25 09:28:14;;;;;;;1.00;0.60;;;;;;;;;;5031542;28;20201;-73
2021/04/25 09:30:40;;;;;;;1.00;0.60;;;;;;;;;;5028913;28;20196;-73
2021/04/25 09:33:09;;;;;;;1.00;0.60;;;;;;;;;;5033717;28;20308;-73
2021/04/25 09:35:35;;;;;;;1.00;0.60;;;;;;;;;;5026291;28;20171;-73
2021/04/25 09:38:09;;;;;;;0.90;0.60;;;;;;;;;;5026367;28;20193;-73
2021/04/25 09:40:40;;;;;;;0.90;0.60;;;;;;;;;;5034320;28;20827;-73
2021/04/25 09:43:06;;;;;;;0.90;0.70;;;;;;;;;;5050441;28;20209;-73
2021/04/25 09:45:40;;;;;;;0.90;0.60;;;;;;;;;;5038094;28;20182;-72
2021/04/25 09:48:26;;;;;;;0.90;0.70;;;;;;;;;;5027291;28;20278;-73
2021/04/25 09:51:11;;;;;;;0.90;0.60;;;;;;;;;;5026176;28;20217;-73
2021/04/25 09:53:38;;;;;;;0.90;0.70;;;;;;;;;;5034477;28;20209;-74
2021/04/25 09:56:05;;;;;;;0.90;0.60;;;;;;;;;;5040948;28;20614;-73
2021/04/25 09:58:31;;;;;;;0.90;0.60;;;;;;;;;;5053511;28;20260;-74
2021/04/25 10:00:57;;;;;;;0.90;0.60;;;;;;;;;;5034312;28;20277;-73
2021/04/25 10:03:23;;;;;;;0.90;0.60;;;;;;;;;;5039108;28;20443;-73
2021/04/25 10:05:58;;;;;;;0.90;0.60;;;;;;;;;;5050920;28;20484;-73
2021/04/25 10:08:37;;;;;;;0.90;0.70;;;;;;;;;;5037092;28;20217;-73
2021/04/25 10:11:04;;;;;;;0.80;0.60;;;;;;;;;;5034446;28;20206;-73
2021/04/25 10:13:31;;;;;;;0.80;0.60;;;;;;;;;;5034194;28;20254;-73
2021/04/25 10:15:57;;;;;;;0.80;0.60;;;;;;;;;;5048012;28;20178;-73
2021/04/25 10:18:23;;;;;;;0.80;0.60;;;;;;;;;;5037425;28;20280;-75
2021/04/25 10:20:50;;;;;;;0.80;0.60;;;;;;;;;;5034452;28;20383;-74
2021/04/25 10:23:16;;;;;;;0.80;0.60;;;;;;;;;;5034234;28;20293;-74
2021/04/25 10:25:43;;;;;;;0.80;0.60;;;;;;;;;;5032791;28;20246;-74
2021/04/25 10:28:12;;;;;;;0.80;0.70;;;;;;;;;;5035155;28;20217;-74
2021/04/25 10:30:39;;;;;;;0.80;0.60;;;;;;;;;;5031468;28;20720;-73
2021/04/25 10:33:05;;;;;;;0.80;0.60;;;;;;;;;;5034290;28;20203;-74
2021/04/25 10:35:35;;;;;;;0.80;0.60;;;;;;;;;;5040116;28;20183;-76
2021/04/25 10:38:05;;;;;;;0.80;0.60;;;;;;;;;;5039600;28;20172;-77
2021/04/25 10:40:34;;;;;;;0.80;0.60;;;;;;;;;;5033882;28;20889;-75
2021/04/25 10:43:04;;;;;;;0.80;0.60;;;;;;;;;;5033804;28;20490;-75
2021/04/25 10:45:34;;;;;;;0.80;0.60;;;;;;;;;;5031374;28;20431;-75
2021/04/25 10:48:18;;;;;;;0.80;0.60;;;;;;;;;;5033873;28;20658;-75
2021/04/25 10:50:45;;;;;;;0.80;0.60;;;;;;;;;;5033151;28;20250;-75
2021/04/25 10:53:37;;;;;;;0.80;0.57;;;;;;;;;;5031666;28;20452;-76
2021/04/25 10:56:13;;;;;;;0.80;0.60;;;;;;;;;;5036610;28;20428;-75
2021/04/25 10:58:39;;;;;;;0.80;0.60;;;;;;;;;;5050489;28;20435;-75
2021/04/25 11:01:05;;;;;;;0.70;0.50;;;;;;;;;;5031292;28;20526;-75
2021/04/25 11:03:37;;;;;;;0.70;0.60;;;;;;;;;;5045659;28;20454;-75
2021/04/25 11:06:05;;;;;;;0.70;0.60;;;;;;;;;;5053935;28;20435;-75
2021/04/25 11:08:31;;;;;;;0.70;0.60;;;;;;;;;;5038219;28;20446;-76
2021/04/25 11:10:57;;;;;;;0.70;0.50;;;;;;;;;;5039065;28;20447;-76
2021/04/25 11:13:35;;;;;;;0.70;0.60;;;;;;;;;;5032646;28;20829;-77
2021/04/25 11:16:03;;;;;;;1.57;1.47;;;;;;;;;;5032985;28;20824;-76
2021/04/25 11:18:48;;;;;;;0.70;0.50;;;;;;;;;;5034269;28;20443;-76
2021/04/25 11:23:56;;;;;;;0.70;0.50;;;;;;;;;;5026509;28;20436;-76
2021/04/25 11:29:02;;;;;;;0.60;0.50;;;;;;;;;;5033869;28;20947;-77
2021/04/25 11:31:52;;;;;;;0.60;0.50;;;;;;;;;;5032674;28;20464;-76
2021/04/25 11:34:47;;;;;;;0.60;0.50;;;;;;;;;;5034030;28;20462;-76
2021/04/25 11:37:16;;;;;;;0.60;0.43;;;;;;;;;;5018746;28;20793;-77
2021/04/25 11:39:53;;;;;;;0.60;0.40;;;;;;;;;;5033761;28;20482;-77
2021/04/25 11:42:25;;;;;;;0.60;0.50;;;;;;;;;;5033429;28;20833;-78
2021/04/25 11:44:51;;;;;;;0.60;0.40;;;;;;;;;;5034665;28;20423;-77
2021/04/25 11:47:18;;;;;;;0.60;0.40;;;;;;;;;;5036775;28;20483;-77
2021/04/25 11:49:45;;;;;;;0.60;0.40;;;;;;;;;;5053177;28;20974;-76
2021/04/25 11:52:31;;;;;;;0.60;0.40;;;;;;;;;;5032817;28;20962;-77
2021/04/25 11:55:01;;;;;;;0.50;0.40;;;;;;;;;;5034128;28;20449;-78
2021/04/25 11:57:28;;;;;;;0.50;0.50;;;;;;;;;;5033771;28;20454;-77
2021/04/25 12:00:00;;;;;;;0.50;0.50;;;;;;;;;;5033520;28;20468;-77
2021/04/25 12:02:30;;;;;;;0.50;0.40;;;;;;;;;;5033313;28;20832;-77
2021/04/25 12:04:57;;;;;;;0.50;0.40;;;;;;;;;;5033995;28;20943;-77
2021/04/25 12:07:31;;;;;;;0.50;0.40;;;;;;;;;;5033804;28;20538;-77
2021/04/25 12:09:57;;;;;;;0.50;0.40;;;;;;;;;;5033491;28;20826;-78
2021/04/25 12:12:23;;;;;;;0.50;0.40;;;;;;;;;;5033893;28;20462;-76
2021/04/25 12:14:58;;;;;;;0.60;0.53;;;;;;;;;;5043121;28;20429;-77
2021/04/25 12:17:24;;;;;;;0.50;0.40;;;;;;;;;;5033111;28;20455;-77
2021/04/25 12:19:50;;;;;;;0.50;0.40;;;;;;;;;;5034181;28;20456;-77
2021/04/25 12:22:16;;;;;;;0.50;0.40;;;;;;;;;;5031515;28;20488;-75
2021/04/25 12:24:43;;;;;;;0.50;0.40;;;;;;;;;;5052575;28;20438;-75
2021/04/25 12:27:09;;;;;;;0.50;0.40;;;;;;;;;;5044222;28;20432;-75
2021/04/25 12:29:35;;;;;;;0.50;0.40;;;;;;;;;;5032101;28;20514;-74
2021/04/25 12:32:02;;;;;;;0.50;0.40;;;;;;;;;;5031918;28;20510;-73
2021/04/25 12:34:29;;;;;;;0.50;0.40;;;;;;;;;;5031853;28;20904;-75
2021/04/25 12:36:56;;;;;;;0.50;0.40;;;;;;;;;;5025911;28;20425;-73
2021/04/25 12:39:22;;;;;;;0.50;0.50;;;;;;;;;;5046553;28;20912;-74
2021/04/25 12:41:49;;;;;;;0.50;0.40;;;;;;;;;;5031947;28;20460;-73
2021/04/25 12:44:16;;;;;;;0.50;0.40;;;;;;;;;;5030443;28;20441;-73
2021/04/25 12:46:54;;;;;;;0.60;0.50;;;;;;;;;;5030861;28;20451;-76
2021/04/25 12:49:20;;;;;;;0.50;0.40;;;;;;;;;;5030874;28;20420;-76
2021/04/25 12:51:47;;;;;;;0.50;0.40;;;;;;;;;;5030517;28;20459;-75
2021/04/25 12:54:14;;;;;;;0.57;0.43;;;;;;;;;;5031355;28;20456;-76
2021/04/25 12:56:41;;;;;;;0.60;0.50;;;;;;;;;;5031822;28;20465;-76
2021/04/25 12:59:19;;;;;;;0.50;0.40;;;;;;;;;;5028037;28;20502;-76
2021/04/25 13:02:08;;;;;;;0.50;0.50;;;;;;;;;;5036334;28;20866;-76
2021/04/25 13:04:44;;;;;;;0.50;0.40;;;;;;;;;;5031219;28;20423;-75
2021/04/25 13:07:28;;;;;;;0.50;0.40;;;;;;;;;;5030552;28;20419;-76
2021/04/25 13:09:54;;;;;;;0.50;0.50;;;;;;;;;;5039217;28;20529;-75
2021/04/25 13:12:20;;;;;;;0.50;0.40;;;;;;;;;;5035259;28;20446;-76
2021/04/25 13:17:29;;;;;;;0.60;0.50;;;;;;;;;;5030356;28;20875;-76
2021/04/25 13:19:56;;;;;;;0.50;0.40;;;;;;;;;;5029595;28;20433;-76
2021/04/25 13:22:22;;;;;;;0.50;0.40;;;;;;;;;;5028552;28;20860;-76
2021/04/25 13:24:48;;;;;;;0.70;0.50;;;;;;;;;;5031319;28;20468;-73
2021/04/25 13:27:16;;;;;;;0.50;0.40;;;;;;;;;;5031806;28;20417;-71
2021/04/25 13:29:43;;;;;;;0.50;0.40;;;;;;;;;;5039002;28;21227;-72
2021/04/25 13:32:09;;;;;;;0.60;0.60;;;;;;;;;;5025947;28;20459;-72
2021/04/25 13:34:35;;;;;;;0.50;0.40;;;;;;;;;;5027333;28;20423;-72
2021/04/25 13:37:01;;;;;;;0.50;0.40;;;;;;;;;;5034558;28;20522;-72
2021/04/25 13:39:27;;;;;;;0.50;0.40;;;;;;;;;;5023430;28;20924;-72
2021/04/25 13:41:53;;;;;;;0.50;0.40;;;;;;;;;;5034426;28;20463;-72
2021/04/25 13:44:21;;;;;;;0.60;0.50;;;;;;;;;;5024142;28;20433;-72
2021/04/25 13:46:47;;;;;;;0.50;0.40;;;;;;;;;;5012715;28;20444;-72
2021/04/25 13:49:13;;;;;;;0.50;0.40;;;;;;;;;;5023650;28;20512;-71
2021/04/25 13:51:39;;;;;;;0.50;0.40;;;;;;;;;;5039324;28;20517;-72
2021/04/25 13:54:05;;;;;;;0.53;0.50;;;;;;;;;;5021629;28;20437;-72
2021/04/25 13:56:31;;;;;;;0.50;0.50;;;;;;;;;;5024966;28;20428;-72
2021/04/25 13:58:57;;;;;;;0.50;0.40;;;;;;;;;;5034332;28;20429;-72
2021/04/25 14:01:24;;;;;;;0.50;0.50;;;;;;;;;;5044779;28;20428;-73
2021/04/25 14:03:50;;;;;;;0.50;0.40;;;;;;;;;;5033017;28;20424;-73
2021/04/25 14:06:16;;;;;;;0.50;0.40;;;;;;;;;;5047186;28;20439;-73
2021/04/25 14:08:43;;;;;;;0.50;0.40;;;;;;;;;;5025117;28;20425;-73
2021/04/25 14:11:09;;;;;;;0.50;0.40;;;;;;;;;;5027935;28;20602;-73
2021/04/25 14:13:36;;;;;;;0.60;0.50;;;;;;;;;;5027648;28;20431;-72
2021/04/25 14:16:02;;;;;;;0.50;0.50;;;;;;;;;;5042500;28;20178;-72
2021/04/25 14:18:29;;;;;;;0.50;0.40;;;;;;;;;;5019047;28;20912;-72
2021/04/25 14:20:56;;;;;;;0.50;0.40;;;;;;;;;;5019460;28;20903;-72
2021/04/25 14:23:22;;;;;;;0.50;0.40;;;;;;;;;;5014878;28;20852;-72
2021/04/25 14:25:48;;;;;;;0.50;0.40;;;;;;;;;;5033280;28;20429;-72
2021/04/25 14:28:14;;;;;;;3.13;0.60;;;;;;;;;;5031968;28;20415;-72
2021/04/25 14:30:40;;;;;;;0.50;0.40;;;;;;;;;;5026781;28;20980;-71
2021/04/25 14:33:06;;;;;;;0.50;0.40;;;;;;;;;;5040845;28;20450;-72
2021/04/25 14:35:32;;;;;;;0.50;0.40;;;;;;;;;;5034783;28;20924;-72
2021/04/25 14:37:59;;;;;;;0.60;0.50;;;;;;;;;;5029471;28;20540;-72
2021/04/25 14:40:25;;;;;;;0.50;0.40;;;;;;;;;;5034281;28;20527;-72
2021/04/25 14:42:52;;;;;;;0.50;0.40;;;;;;;;;;5056247;22;20487;-74
2021/04/25 14:45:18;;;;;;;0.50;0.40;;;;;;;;;;5044005;28;20436;-75
2021/04/25 14:47:54;;;;;;;0.50;0.40;;;;;;;;;;5045146;28;20436;-75
2021/04/25 14:50:25;;;;;;;0.50;0.43;;;;;;;;;;5035718;28;20526;-75
2021/04/25 14:52:52;;;;;;;0.50;0.40;;;;;;;;;;5056475;28;20451;-75